Pittsburgh, Pennsylvania
Traffic Map
Current Weather Conditions
Pittsburgh, Pennsylvania
Overcast Light Snow
Overcast
-7°
Feels Like: -16°
Wind Chill: -16° Ceiling: 2500
Heat Index: -7° Visibility: 6mi
Dew Point: -13° Wind: 21mph
Humidity: 62% Direction: 320° (NW)
Pressure: 30.21in Gusts: 29mph
Raw Report DataKAGC 301653Z 32018G25KT 6SM R28/6000VP6000FT -SN OVC025 M07/M13 A3021 RMK AO2 PK WND 32030/1620 SLP251 P0000 T10671128
Traffic Incident Summary
Active as of:
Severity:
Category:
InformationThere was an issue retrieving the traffic information for this location. Please try a different location or try again shortly.
Advertisements
Track Severe Weather on mobile